sensor_id;sensor_type;location;lat;lon;timestamp;pressure;altitude;pressure_sealevel;temperature;humidity
64853;BME280;56050;55.558;-4.644;2022-12-07T00:01:15;102894.78;;;3.88;67.04
64853;BME280;56050;55.558;-4.644;2022-12-07T00:03:42;102891.31;;;3.88;67.06
64853;BME280;56050;55.558;-4.644;2022-12-07T00:06:10;102892.38;;;3.87;66.97
64853;BME280;56050;55.558;-4.644;2022-12-07T00:08:36;102893.47;;;3.86;66.94
64853;BME280;56050;55.558;-4.644;2022-12-07T00:13:33;102886.84;;;3.83;66.94
64853;BME280;56050;55.558;-4.644;2022-12-07T00:16:04;102885.03;;;3.79;67.05
64853;BME280;56050;55.558;-4.644;2022-12-07T00:18:29;102883.44;;;3.78;66.90
64853;BME280;56050;55.558;-4.644;2022-12-07T00:21:08;102889.34;;;3.75;67.18
64853;BME280;56050;55.558;-4.644;2022-12-07T00:23:34;102885.09;;;3.74;67.06
64853;BME280;56050;55.558;-4.644;2022-12-07T00:26:13;102883.56;;;3.68;67.01
64853;BME280;56050;55.558;-4.644;2022-12-07T00:28:39;102886.31;;;3.63;66.92
64853;BME280;56050;55.558;-4.644;2022-12-07T00:31:11;102882.06;;;3.62;67.09
64853;BME280;56050;55.558;-4.644;2022-12-07T00:33:37;102891.69;;;3.58;67.00
64853;BME280;56050;55.558;-4.644;2022-12-07T00:36:10;102886.44;;;3.52;67.24
64853;BME280;56050;55.558;-4.644;2022-12-07T00:38:37;102884.59;;;3.48;67.18
64853;BME280;56050;55.558;-4.644;2022-12-07T00:41:06;102880.66;;;3.45;67.40
64853;BME280;56050;55.558;-4.644;2022-12-07T00:43:33;102880.16;;;3.43;67.25
64853;BME280;56050;55.558;-4.644;2022-12-07T00:45:58;102877.78;;;3.42;67.26
64853;BME280;56050;55.558;-4.644;2022-12-07T00:48:24;102865.03;;;3.39;67.31
64853;BME280;56050;55.558;-4.644;2022-12-07T00:50:50;102865.09;;;3.34;67.34
64853;BME280;56050;55.558;-4.644;2022-12-07T00:53:16;102868.31;;;3.31;67.41
64853;BME280;56050;55.558;-4.644;2022-12-07T00:55:42;102858.00;;;3.24;67.20
64853;BME280;56050;55.558;-4.644;2022-12-07T00:58:08;102861.00;;;3.18;67.41
64853;BME280;56050;55.558;-4.644;2022-12-07T01:00:36;102860.25;;;3.12;67.53
64853;BME280;56050;55.558;-4.644;2022-12-07T01:03:03;102854.19;;;3.07;67.45
64853;BME280;56050;55.558;-4.644;2022-12-07T01:05:29;102854.53;;;3.00;67.41
64853;BME280;56050;55.558;-4.644;2022-12-07T01:07:54;102850.84;;;2.96;67.60
64853;BME280;56050;55.558;-4.644;2022-12-07T01:10:20;102848.75;;;2.93;67.77
64853;BME280;56050;55.558;-4.644;2022-12-07T01:12:45;102837.88;;;2.89;67.59
64853;BME280;56050;55.558;-4.644;2022-12-07T01:15:11;102845.94;;;2.84;67.62
64853;BME280;56050;55.558;-4.644;2022-12-07T01:17:36;102842.00;;;2.77;67.69
64853;BME280;56050;55.558;-4.644;2022-12-07T01:20:03;102845.78;;;2.71;67.69
64853;BME280;56050;55.558;-4.644;2022-12-07T01:22:28;102854.59;;;2.66;67.69
64853;BME280;56050;55.558;-4.644;2022-12-07T01:24:54;102841.88;;;2.63;67.72
64853;BME280;56050;55.558;-4.644;2022-12-07T01:27:20;102839.25;;;2.58;67.78
64853;BME280;56050;55.558;-4.644;2022-12-07T01:29:45;102838.22;;;2.54;67.95
64853;BME280;56050;55.558;-4.644;2022-12-07T01:32:11;102838.50;;;2.53;67.79
64853;BME280;56050;55.558;-4.644;2022-12-07T01:34:36;102840.38;;;2.52;67.78
64853;BME280;56050;55.558;-4.644;2022-12-07T01:37:02;102834.25;;;2.52;67.65
64853;BME280;56050;55.558;-4.644;2022-12-07T01:39:27;102835.34;;;2.51;67.69
64853;BME280;56050;55.558;-4.644;2022-12-07T01:41:53;102827.13;;;2.47;67.55
64853;BME280;56050;55.558;-4.644;2022-12-07T01:44:24;102832.19;;;2.44;67.65
64853;BME280;56050;55.558;-4.644;2022-12-07T01:47:01;102829.56;;;2.38;67.57
64853;BME280;56050;55.558;-4.644;2022-12-07T01:54:34;102823.25;;;2.29;67.82
64853;BME280;56050;55.558;-4.644;2022-12-07T01:57:00;102824.63;;;2.27;67.71
64853;BME280;56050;55.558;-4.644;2022-12-07T01:59:26;102822.25;;;2.25;67.86
64853;BME280;56050;55.558;-4.644;2022-12-07T02:01:53;102822.50;;;2.24;67.81
64853;BME280;56050;55.558;-4.644;2022-12-07T02:04:19;102820.94;;;2.23;67.80
64853;BME280;56050;55.558;-4.644;2022-12-07T02:06:46;102822.81;;;2.22;67.76
64853;BME280;56050;55.558;-4.644;2022-12-07T02:09:12;102819.84;;;2.24;67.76
64853;BME280;56050;55.558;-4.644;2022-12-07T02:11:38;102814.81;;;2.22;67.78
64853;BME280;56050;55.558;-4.644;2022-12-07T02:14:04;102821.19;;;2.21;67.57
64853;BME280;56050;55.558;-4.644;2022-12-07T02:16:45;102813.53;;;2.20;67.74
64853;BME280;56050;55.558;-4.644;2022-12-07T02:19:23;102821.50;;;2.20;67.75
64853;BME280;56050;55.558;-4.644;2022-12-07T02:27:43;102809.75;;;2.26;68.02
64853;BME280;56050;55.558;-4.644;2022-12-07T02:30:13;102807.59;;;2.28;67.83
64853;BME280;56050;55.558;-4.644;2022-12-07T02:35:21;102807.09;;;2.26;67.86
64853;BME280;56050;55.558;-4.644;2022-12-07T02:38:03;102810.00;;;2.24;67.78
64853;BME280;56050;55.558;-4.644;2022-12-07T02:40:38;102800.47;;;2.23;67.67
64853;BME280;56050;55.558;-4.644;2022-12-07T02:43:14;102803.69;;;2.20;67.75
64853;BME280;56050;55.558;-4.644;2022-12-07T02:45:43;102795.16;;;2.18;67.89
64853;BME280;56050;55.558;-4.644;2022-12-07T02:48:12;102793.59;;;2.17;67.80
64853;BME280;56050;55.558;-4.644;2022-12-07T02:50:39;102795.75;;;2.15;67.74
64853;BME280;56050;55.558;-4.644;2022-12-07T02:53:04;102791.50;;;2.14;67.87
64853;BME280;56050;55.558;-4.644;2022-12-07T02:55:40;102796.00;;;2.14;68.18
64853;BME280;56050;55.558;-4.644;2022-12-07T02:58:44;102789.63;;;2.15;68.20
64853;BME280;56050;55.558;-4.644;2022-12-07T03:03:39;102788.78;;;2.19;67.85
64853;BME280;56050;55.558;-4.644;2022-12-07T03:08:59;102786.94;;;2.20;68.01
64853;BME280;56050;55.558;-4.644;2022-12-07T03:12:00;102783.22;;;2.21;68.00
64853;BME280;56050;55.558;-4.644;2022-12-07T03:14:35;102789.31;;;2.21;68.07
64853;BME280;56050;55.558;-4.644;2022-12-07T03:17:10;102789.84;;;2.23;68.19
64853;BME280;56050;55.558;-4.644;2022-12-07T03:19:39;102790.59;;;2.24;68.10
64853;BME280;56050;55.558;-4.644;2022-12-07T03:22:09;102788.75;;;2.24;68.08
64853;BME280;56050;55.558;-4.644;2022-12-07T03:24:42;102780.25;;;2.22;68.16
64853;BME280;56050;55.558;-4.644;2022-12-07T03:27:16;102777.59;;;2.22;68.03
64853;BME280;56050;55.558;-4.644;2022-12-07T03:29:48;102776.53;;;2.23;68.15
64853;BME280;56050;55.558;-4.644;2022-12-07T03:34:59;102782.38;;;2.25;67.89
64853;BME280;56050;55.558;-4.644;2022-12-07T03:37:32;102778.41;;;2.23;67.80
64853;BME280;56050;55.558;-4.644;2022-12-07T03:40:19;102773.63;;;2.20;67.83
64853;BME280;56050;55.558;-4.644;2022-12-07T03:42:48;102777.66;;;2.17;67.80
64853;BME280;56050;55.558;-4.644;2022-12-07T03:45:14;102771.81;;;2.15;67.75
64853;BME280;56050;55.558;-4.644;2022-12-07T03:47:47;102771.59;;;2.12;67.93
64853;BME280;56050;55.558;-4.644;2022-12-07T03:50:31;102770.03;;;2.06;67.77
64853;BME280;56050;55.558;-4.644;2022-12-07T03:53:44;102772.44;;;2.02;67.69
64853;BME280;56050;55.558;-4.644;2022-12-07T03:56:12;102772.72;;;2.01;67.82
64853;BME280;56050;55.558;-4.644;2022-12-07T03:58:39;102771.13;;;2.00;67.92
64853;BME280;56050;55.558;-4.644;2022-12-07T04:01:06;102763.97;;;2.00;67.76
64853;BME280;56050;55.558;-4.644;2022-12-07T04:03:31;102763.16;;;2.00;67.82
64853;BME280;56050;55.558;-4.644;2022-12-07T04:05:57;102766.13;;;1.98;67.82
64853;BME280;56050;55.558;-4.644;2022-12-07T04:08:23;102761.84;;;1.97;67.85
64853;BME280;56050;55.558;-4.644;2022-12-07T04:10:49;102764.50;;;1.97;67.76
64853;BME280;56050;55.558;-4.644;2022-12-07T04:13:14;102767.47;;;1.96;67.75
64853;BME280;56050;55.558;-4.644;2022-12-07T04:15:40;102765.06;;;1.94;67.92
64853;BME280;56050;55.558;-4.644;2022-12-07T04:18:05;102766.16;;;1.88;67.75
64853;BME280;56050;55.558;-4.644;2022-12-07T04:20:31;102758.25;;;1.83;67.95
64853;BME280;56050;55.558;-4.644;2022-12-07T04:22:56;102759.09;;;1.78;67.94
64853;BME280;56050;55.558;-4.644;2022-12-07T04:25:22;102755.13;;;1.76;68.04
64853;BME280;56050;55.558;-4.644;2022-12-07T04:27:47;102759.13;;;1.73;67.87
64853;BME280;56050;55.558;-4.644;2022-12-07T04:30:13;102753.56;;;1.70;67.79
64853;BME280;56050;55.558;-4.644;2022-12-07T04:32:38;102756.50;;;1.68;67.90
64853;BME280;56050;55.558;-4.644;2022-12-07T04:35:04;102748.78;;;1.67;67.90
64853;BME280;56050;55.558;-4.644;2022-12-07T04:37:30;102748.78;;;1.67;67.87
64853;BME280;56050;55.558;-4.644;2022-12-07T04:39:55;102746.69;;;1.64;67.79
64853;BME280;56050;55.558;-4.644;2022-12-07T04:42:20;102746.44;;;1.60;67.96
64853;BME280;56050;55.558;-4.644;2022-12-07T04:44:46;102740.91;;;1.57;67.96
64853;BME280;56050;55.558;-4.644;2022-12-07T04:47:11;102738.28;;;1.52;67.74
64853;BME280;56050;55.558;-4.644;2022-12-07T04:49:37;102733.53;;;1.49;67.63
64853;BME280;56050;55.558;-4.644;2022-12-07T04:52:02;102739.38;;;1.46;67.90
64853;BME280;56050;55.558;-4.644;2022-12-07T04:54:28;102732.22;;;1.41;67.93
64853;BME280;56050;55.558;-4.644;2022-12-07T04:56:53;102727.47;;;1.38;67.96
64853;BME280;56050;55.558;-4.644;2022-12-07T04:59:20;102737.84;;;1.35;68.00
64853;BME280;56050;55.558;-4.644;2022-12-07T05:01:45;102732.28;;;1.31;68.04
64853;BME280;56050;55.558;-4.644;2022-12-07T05:04:11;102732.59;;;1.30;67.97
64853;BME280;56050;55.558;-4.644;2022-12-07T05:06:36;102729.38;;;1.28;68.05
64853;BME280;56050;55.558;-4.644;2022-12-07T05:09:02;102728.88;;;1.26;68.00
64853;BME280;56050;55.558;-4.644;2022-12-07T05:11:28;102729.94;;;1.25;68.04
64853;BME280;56050;55.558;-4.644;2022-12-07T05:14:10;102732.06;;;1.23;68.00
64853;BME280;56050;55.558;-4.644;2022-12-07T05:16:37;102725.97;;;1.22;68.04
64853;BME280;56050;55.558;-4.644;2022-12-07T05:19:03;102730.25;;;1.18;67.88
64853;BME280;56050;55.558;-4.644;2022-12-07T05:21:28;102728.38;;;1.13;67.93
64853;BME280;56050;55.558;-4.644;2022-12-07T05:23:54;102728.16;;;1.10;68.00
64853;BME280;56050;55.558;-4.644;2022-12-07T05:26:19;102731.63;;;1.05;68.15
64853;BME280;56050;55.558;-4.644;2022-12-07T05:28:45;102725.78;;;1.03;68.25
64853;BME280;56050;55.558;-4.644;2022-12-07T05:31:10;102731.38;;;1.02;68.17
64853;BME280;56050;55.558;-4.644;2022-12-07T05:33:36;102725.28;;;1.01;68.30
64853;BME280;56050;55.558;-4.644;2022-12-07T05:36:01;102729.00;;;1.00;68.24
64853;BME280;56050;55.558;-4.644;2022-12-07T05:38:33;102725.53;;;1.00;68.51
64853;BME280;56050;55.558;-4.644;2022-12-07T05:41:01;102719.69;;;1.03;68.21
64853;BME280;56050;55.558;-4.644;2022-12-07T05:43:27;102721.53;;;1.02;68.28
64853;BME280;56050;55.558;-4.644;2022-12-07T05:45:53;102714.66;;;1.01;68.22
64853;BME280;56050;55.558;-4.644;2022-12-07T05:48:18;102709.63;;;1.00;68.32
64853;BME280;56050;55.558;-4.644;2022-12-07T05:50:44;102706.44;;;0.98;68.32
64853;BME280;56050;55.558;-4.644;2022-12-07T05:53:12;102696.63;;;0.98;68.22
64853;BME280;56050;55.558;-4.644;2022-12-07T05:55:37;102700.88;;;0.94;68.05
64853;BME280;56050;55.558;-4.644;2022-12-07T05:58:03;102690.81;;;0.91;68.20
64853;BME280;56050;55.558;-4.644;2022-12-07T06:00:47;102686.84;;;0.89;68.09
64853;BME280;56050;55.558;-4.644;2022-12-07T06:03:12;102681.31;;;0.85;68.06
64853;BME280;56050;55.558;-4.644;2022-12-07T06:05:37;102687.97;;;0.83;67.98
64853;BME280;56050;55.558;-4.644;2022-12-07T06:08:03;102684.25;;;0.79;67.96
64853;BME280;56050;55.558;-4.644;2022-12-07T06:10:28;102679.78;;;0.74;67.84
64853;BME280;56050;55.558;-4.644;2022-12-07T06:12:54;102677.13;;;0.69;67.86
64853;BME280;56050;55.558;-4.644;2022-12-07T06:15:19;102671.31;;;0.62;68.02
64853;BME280;56050;55.558;-4.644;2022-12-07T06:17:45;102683.53;;;0.58;68.16
64853;BME280;56050;55.558;-4.644;2022-12-07T06:20:10;102685.94;;;0.54;68.27
64853;BME280;56050;55.558;-4.644;2022-12-07T06:22:36;102683.53;;;0.53;68.45
64853;BME280;56050;55.558;-4.644;2022-12-07T06:25:01;102684.63;;;0.52;68.24
64853;BME280;56050;55.558;-4.644;2022-12-07T06:27:27;102671.38;;;0.52;68.44
64853;BME280;56050;55.558;-4.644;2022-12-07T06:29:52;102669.25;;;0.54;68.56
64853;BME280;56050;55.558;-4.644;2022-12-07T06:32:18;102670.03;;;0.54;68.35
64853;BME280;56050;55.558;-4.644;2022-12-07T06:34:43;102667.38;;;0.54;68.39
64853;BME280;56050;55.558;-4.644;2022-12-07T06:37:09;102667.63;;;0.53;68.24
64853;BME280;56050;55.558;-4.644;2022-12-07T06:39:34;102678.25;;;0.53;68.30
64853;BME280;56050;55.558;-4.644;2022-12-07T06:42:00;102674.53;;;0.54;68.30
64853;BME280;56050;55.558;-4.644;2022-12-07T06:44:25;102668.44;;;0.53;68.23
64853;BME280;56050;55.558;-4.644;2022-12-07T06:46:51;102671.09;;;0.53;68.31
64853;BME280;56050;55.558;-4.644;2022-12-07T06:49:17;102671.09;;;0.53;68.30
64853;BME280;56050;55.558;-4.644;2022-12-07T06:51:42;102670.56;;;0.51;68.00
64853;BME280;56050;55.558;-4.644;2022-12-07T06:54:09;102670.06;;;0.49;67.90
64853;BME280;56050;55.558;-4.644;2022-12-07T06:56:35;102671.13;;;0.48;67.89
64853;BME280;56050;55.558;-4.644;2022-12-07T06:59:01;102672.16;;;0.47;68.09
64853;BME280;56050;55.558;-4.644;2022-12-07T07:01:27;102668.19;;;0.45;68.25
64853;BME280;56050;55.558;-4.644;2022-12-07T07:03:53;102671.66;;;0.45;68.09
64853;BME280;56050;55.558;-4.644;2022-12-07T07:06:19;102671.94;;;0.44;68.07
64853;BME280;56050;55.558;-4.644;2022-12-07T07:08:44;102670.63;;;0.41;67.93
64853;BME280;56050;55.558;-4.644;2022-12-07T07:11:10;102666.63;;;0.39;68.19
64853;BME280;56050;55.558;-4.644;2022-12-07T07:13:36;102663.97;;;0.39;67.99
64853;BME280;56050;55.558;-4.644;2022-12-07T07:16:01;102662.91;;;0.40;68.16
64853;BME280;56050;55.558;-4.644;2022-12-07T07:18:27;102665.56;;;0.40;68.23
64853;BME280;56050;55.558;-4.644;2022-12-07T07:20:53;102660.25;;;0.40;68.14
64853;BME280;56050;55.558;-4.644;2022-12-07T07:23:19;102670.34;;;0.38;68.11
64853;BME280;56050;55.558;-4.644;2022-12-07T07:25:45;102667.69;;;0.38;68.16
64853;BME280;56050;55.558;-4.644;2022-12-07T07:28:11;102662.94;;;0.35;68.29
64853;BME280;56050;55.558;-4.644;2022-12-07T07:30:37;102665.84;;;0.33;68.18
64853;BME280;56050;55.558;-4.644;2022-12-07T07:33:04;102658.16;;;0.32;68.25
64853;BME280;56050;55.558;-4.644;2022-12-07T07:35:31;102662.66;;;0.31;68.08
64853;BME280;56050;55.558;-4.644;2022-12-07T07:37:57;102656.56;;;0.31;68.07
64853;BME280;56050;55.558;-4.644;2022-12-07T07:40:24;102652.06;;;0.31;68.21
64853;BME280;56050;55.558;-4.644;2022-12-07T07:42:53;102647.06;;;0.30;68.00
64853;BME280;56050;55.558;-4.644;2022-12-07T07:45:20;102644.66;;;0.28;68.12
64853;BME280;56050;55.558;-4.644;2022-12-07T07:47:46;102643.09;;;0.27;68.33
64853;BME280;56050;55.558;-4.644;2022-12-07T07:50:12;102642.28;;;0.27;68.23
64853;BME280;56050;55.558;-4.644;2022-12-07T07:52:38;102650.25;;;0.27;68.18
64853;BME280;56050;55.558;-4.644;2022-12-07T07:55:05;102642.53;;;0.25;68.13
64853;BME280;56050;55.558;-4.644;2022-12-07T07:57:30;102639.13;;;0.25;68.17
64853;BME280;56050;55.558;-4.644;2022-12-07T07:59:56;102633.28;;;0.23;68.09
64853;BME280;56050;55.558;-4.644;2022-12-07T08:02:21;102636.47;;;0.20;68.05
64853;BME280;56050;55.558;-4.644;2022-12-07T08:04:47;102634.34;;;0.17;68.05
64853;BME280;56050;55.558;-4.644;2022-12-07T08:07:14;102638.06;;;0.16;68.19
64853;BME280;56050;55.558;-4.644;2022-12-07T08:09:39;102644.94;;;0.17;68.39
64853;BME280;56050;55.558;-4.644;2022-12-07T08:12:05;102646.81;;;0.21;68.26
64853;BME280;56050;55.558;-4.644;2022-12-07T08:14:31;102646.78;;;0.26;68.32
64853;BME280;56050;55.558;-4.644;2022-12-07T08:16:56;102644.63;;;0.33;68.36
64853;BME280;56050;55.558;-4.644;2022-12-07T08:19:22;102643.56;;;0.39;68.18
64853;BME280;56050;55.558;-4.644;2022-12-07T08:21:48;102637.19;;;0.45;68.09
64853;BME280;56050;55.558;-4.644;2022-12-07T08:24:14;102645.91;;;0.51;68.06
64853;BME280;56050;55.558;-4.644;2022-12-07T08:26:40;102647.19;;;0.58;68.03
64853;BME280;56050;55.558;-4.644;2022-12-07T08:29:05;102645.31;;;0.64;68.00
64853;BME280;56050;55.558;-4.644;2022-12-07T08:31:31;102639.44;;;0.72;68.10
64853;BME280;56050;55.558;-4.644;2022-12-07T08:33:56;102642.09;;;0.77;68.05
64853;BME280;56050;55.558;-4.644;2022-12-07T08:36:22;102625.34;;;0.82;67.84
64853;BME280;56050;55.558;-4.644;2022-12-07T08:38:48;102633.56;;;0.85;67.97
64853;BME280;56050;55.558;-4.644;2022-12-07T08:41:14;102623.47;;;0.87;67.88
64853;BME280;56050;55.558;-4.644;2022-12-07T08:43:39;102628.22;;;0.90;67.87
64853;BME280;56050;55.558;-4.644;2022-12-07T08:46:28;102622.94;;;0.90;67.78
64853;BME280;56050;55.558;-4.644;2022-12-07T08:49:25;102628.19;;;0.95;67.74
64853;BME280;56050;55.558;-4.644;2022-12-07T08:51:52;102635.56;;;1.03;68.04
64853;BME280;56050;55.558;-4.644;2022-12-07T08:54:19;102642.44;;;1.09;67.97
64853;BME280;56050;55.558;-4.644;2022-12-07T08:56:46;102642.41;;;1.14;67.99
64853;BME280;56050;55.558;-4.644;2022-12-07T08:59:14;102637.84;;;1.20;67.89
64853;BME280;56050;55.558;-4.644;2022-12-07T09:01:41;102631.72;;;1.25;67.99
64853;BME280;56050;55.558;-4.644;2022-12-07T09:04:07;102629.56;;;1.32;67.82
64853;BME280;56050;55.558;-4.644;2022-12-07T09:06:33;102633.47;;;1.39;67.88
64853;BME280;56050;55.558;-4.644;2022-12-07T09:09:00;102633.69;;;1.48;68.00
64853;BME280;56050;55.558;-4.644;2022-12-07T09:11:26;102635.72;;;1.56;67.97
64853;BME280;56050;55.558;-4.644;2022-12-07T09:13:52;102638.88;;;1.63;67.83
64853;BME280;56050;55.558;-4.644;2022-12-07T09:16:17;102638.53;;;1.69;67.82
64853;BME280;56050;55.558;-4.644;2022-12-07T09:18:43;102637.44;;;1.75;67.58
64853;BME280;56050;55.558;-4.644;2022-12-07T09:21:08;102631.00;;;1.82;67.65
64853;BME280;56050;55.558;-4.644;2022-12-07T09:23:34;102632.25;;;1.89;67.68
64853;BME280;56050;55.558;-4.644;2022-12-07T09:26:01;102636.44;;;1.95;67.78
64853;BME280;56050;55.558;-4.644;2022-12-07T09:28:26;102632.38;;;2.03;67.71
64853;BME280;56050;55.558;-4.644;2022-12-07T09:30:52;102632.06;;;2.09;67.44
64853;BME280;56050;55.558;-4.644;2022-12-07T09:33:18;102610.72;;;2.14;67.50
64853;BME280;56050;55.558;-4.644;2022-12-07T09:35:47;102621.31;;;2.19;67.43
64853;BME280;56050;55.558;-4.644;2022-12-07T09:38:14;102611.69;;;2.23;67.37
64853;BME280;56050;55.558;-4.644;2022-12-07T09:40:40;102609.25;;;2.27;67.41
64853;BME280;56050;55.558;-4.644;2022-12-07T09:43:28;102607.13;;;2.29;67.52
64853;BME280;56050;55.558;-4.644;2022-12-07T09:45:55;102599.13;;;2.29;67.46
64853;BME280;56050;55.558;-4.644;2022-12-07T09:48:24;102606.81;;;2.30;67.40
64853;BME280;56050;55.558;-4.644;2022-12-07T09:50:52;102599.63;;;2.31;67.53
64853;BME280;56050;55.558;-4.644;2022-12-07T09:53:26;102600.44;;;2.31;67.50
64853;BME280;56050;55.558;-4.644;2022-12-07T09:55:53;102598.53;;;2.32;67.66
64853;BME280;56050;55.558;-4.644;2022-12-07T09:58:24;102595.13;;;2.31;67.61
64853;BME280;56050;55.558;-4.644;2022-12-07T10:00:58;102579.16;;;2.31;67.54
64853;BME280;56050;55.558;-4.644;2022-12-07T10:03:26;102582.88;;;2.30;67.52
64853;BME280;56050;55.558;-4.644;2022-12-07T10:05:53;102581.81;;;2.31;67.63
64853;BME280;56050;55.558;-4.644;2022-12-07T10:08:19;102572.75;;;2.32;67.46
64853;BME280;56050;55.558;-4.644;2022-12-07T10:10:50;102571.38;;;2.35;67.70
64853;BME280;56050;55.558;-4.644;2022-12-07T10:13:21;102570.56;;;2.40;67.71
64853;BME280;56050;55.558;-4.644;2022-12-07T10:15:56;102565.66;;;2.47;67.92
64853;BME280;56050;55.558;-4.644;2022-12-07T10:18:37;102560.78;;;2.54;67.74
64853;BME280;56050;55.558;-4.644;2022-12-07T10:21:13;102565.47;;;2.62;67.77
64853;BME280;56050;55.558;-4.644;2022-12-07T10:29:21;102559.97;;;2.90;67.76
64853;BME280;56050;55.558;-4.644;2022-12-07T10:31:54;102562.50;;;3.01;67.64
64853;BME280;56050;55.558;-4.644;2022-12-07T10:34:27;102557.81;;;3.11;67.59
64853;BME280;56050;55.558;-4.644;2022-12-07T10:39:51;102547.13;;;3.30;67.64
64853;BME280;56050;55.558;-4.644;2022-12-07T10:45:08;102545.78;;;3.46;67.59
64853;BME280;56050;55.558;-4.644;2022-12-07T10:53:32;102531.03;;;3.67;67.28
64853;BME280;56050;55.558;-4.644;2022-12-07T11:02:01;102522.50;;;3.79;67.19
64853;BME280;56050;55.558;-4.644;2022-12-07T11:08:05;102522.34;;;3.89;67.14
64853;BME280;56050;55.558;-4.644;2022-12-07T11:15:49;102507.63;;;4.05;67.25
64853;BME280;56050;55.558;-4.644;2022-12-07T11:18:49;102500.00;;;4.12;67.25
64853;BME280;56050;55.558;-4.644;2022-12-07T11:35:54;102491.63;;;4.41;66.91
64853;BME280;56050;55.558;-4.644;2022-12-07T11:38:33;102485.09;;;4.47;66.85
64853;BME280;56050;55.558;-4.644;2022-12-07T11:41:02;102487.94;;;4.50;66.81
64853;BME280;56050;55.558;-4.644;2022-12-07T11:44:00;102489.72;;;4.55;66.92
64853;BME280;56050;55.558;-4.644;2022-12-07T11:46:40;102480.81;;;4.59;66.70
64853;BME280;56050;55.558;-4.644;2022-12-07T11:49:19;102470.31;;;4.63;66.92
64853;BME280;56050;55.558;-4.644;2022-12-07T11:51:49;102470.19;;;4.68;66.87
64853;BME280;56050;55.558;-4.644;2022-12-07T11:54:32;102465.53;;;4.73;66.84
64853;BME280;56050;55.558;-4.644;2022-12-07T11:57:04;102465.88;;;4.81;66.81
64853;BME280;56050;55.558;-4.644;2022-12-07T11:59:39;102464.19;;;4.85;66.87
64853;BME280;56050;55.558;-4.644;2022-12-07T12:02:18;102459.50;;;4.90;66.77
64853;BME280;56050;55.558;-4.644;2022-12-07T12:04:58;102447.91;;;4.95;66.68
64853;BME280;56050;55.558;-4.644;2022-12-07T12:07:27;102440.88;;;4.99;66.74
64853;BME280;56050;55.558;-4.644;2022-12-07T12:10:15;102438.69;;;5.01;66.73
64853;BME280;56050;55.558;-4.644;2022-12-07T12:12:57;102440.44;;;5.05;66.77
64853;BME280;56050;55.558;-4.644;2022-12-07T12:18:11;102425.22;;;5.14;66.61
64853;BME280;56050;55.558;-4.644;2022-12-07T12:26:08;102416.47;;;5.22;66.66
64853;BME280;56050;55.558;-4.644;2022-12-07T12:28:56;102408.63;;;5.26;66.78
64853;BME280;56050;55.558;-4.644;2022-12-07T12:33:53;102402.25;;;5.36;66.58
64853;BME280;56050;55.558;-4.644;2022-12-07T12:36:44;102398.91;;;5.39;66.63
64853;BME280;56050;55.558;-4.644;2022-12-07T12:39:17;102396.44;;;5.42;66.69
64853;BME280;56050;55.558;-4.644;2022-12-07T12:46:56;102390.31;;;5.50;66.69
64853;BME280;56050;55.558;-4.644;2022-12-07T12:51:49;102385.47;;;5.52;66.81
64853;BME280;56050;55.558;-4.644;2022-12-07T12:56:51;102379.00;;;5.53;66.63
64853;BME280;56050;55.558;-4.644;2022-12-07T13:01:48;102370.38;;;5.56;66.68
64853;BME280;56050;55.558;-4.644;2022-12-07T13:04:29;102366.59;;;5.57;66.62
64853;BME280;56050;55.558;-4.644;2022-12-07T13:06:56;102363.31;;;5.60;66.72
64853;BME280;56050;55.558;-4.644;2022-12-07T13:09:31;102361.56;;;5.64;66.74
64853;BME280;56050;55.558;-4.644;2022-12-07T13:12:12;102356.69;;;5.66;66.71
64853;BME280;56050;55.558;-4.644;2022-12-07T13:14:52;102354.50;;;5.68;66.62
64853;BME280;56050;55.558;-4.644;2022-12-07T13:20:00;102347.91;;;5.74;66.59
64853;BME280;56050;55.558;-4.644;2022-12-07T13:25:21;102338.00;;;5.83;66.84
64853;BME280;56050;55.558;-4.644;2022-12-07T13:27:56;102330.19;;;5.87;66.79
64853;BME280;56050;55.558;-4.644;2022-12-07T13:30:23;102328.44;;;5.91;66.77
64853;BME280;56050;55.558;-4.644;2022-12-07T13:32:54;102331.28;;;5.95;66.68
64853;BME280;56050;55.558;-4.644;2022-12-07T13:37:56;102330.00;;;6.01;66.65
64853;BME280;56050;55.558;-4.644;2022-12-07T13:40:22;102328.28;;;6.05;66.67
64853;BME280;56050;55.558;-4.644;2022-12-07T13:42:57;102320.28;;;6.05;66.70
64853;BME280;56050;55.558;-4.644;2022-12-07T13:45:31;102314.59;;;6.06;66.46
64853;BME280;56050;55.558;-4.644;2022-12-07T13:48:41;102319.94;;;6.06;66.54
64853;BME280;56050;55.558;-4.644;2022-12-07T13:51:20;102306.72;;;6.10;66.57
64853;BME280;56050;55.558;-4.644;2022-12-07T13:53:48;102301.38;;;6.10;66.62
64853;BME280;56050;55.558;-4.644;2022-12-07T13:56:14;102288.78;;;6.10;66.60
64853;BME280;56050;55.558;-4.644;2022-12-07T13:58:40;102288.31;;;6.08;66.85
64853;BME280;56050;55.558;-4.644;2022-12-07T14:01:06;102286.13;;;6.10;66.72
64853;BME280;56050;55.558;-4.644;2022-12-07T14:03:33;102279.97;;;6.10;66.80
64853;BME280;56050;55.558;-4.644;2022-12-07T14:08:42;102270.81;;;6.11;67.08
64853;BME280;56050;55.558;-4.644;2022-12-07T14:11:14;102267.06;;;6.12;67.11
64853;BME280;56050;55.558;-4.644;2022-12-07T14:13:51;102268.63;;;6.13;67.17
64853;BME280;56050;55.558;-4.644;2022-12-07T14:18:45;102271.44;;;6.16;66.97
64853;BME280;56050;55.558;-4.644;2022-12-07T14:23:36;102258.69;;;6.22;66.90
64853;BME280;56050;55.558;-4.644;2022-12-07T14:26:20;102252.25;;;6.23;66.90
64853;BME280;56050;55.558;-4.644;2022-12-07T14:28:47;102249.56;;;6.23;66.96
64853;BME280;56050;55.558;-4.644;2022-12-07T14:31:14;102239.94;;;6.22;66.99
64853;BME280;56050;55.558;-4.644;2022-12-07T14:33:41;102238.41;;;6.21;66.90
64853;BME280;56050;55.558;-4.644;2022-12-07T14:36:14;102242.97;;;6.20;67.02
64853;BME280;56050;55.558;-4.644;2022-12-07T14:38:40;102236.03;;;6.19;66.92
64853;BME280;56050;55.558;-4.644;2022-12-07T14:41:06;102232.56;;;6.19;66.94
64853;BME280;56050;55.558;-4.644;2022-12-07T14:43:55;102226.28;;;6.15;66.86
64853;BME280;56050;55.558;-4.644;2022-12-07T14:46:20;102225.34;;;6.11;67.01
64853;BME280;56050;55.558;-4.644;2022-12-07T14:48:46;102212.47;;;6.04;67.04
64853;BME280;56050;55.558;-4.644;2022-12-07T14:51:11;102205.72;;;5.98;67.03